Time;durP1;ratioP1;P1;durP2;ratioP2;P2;SDS_P1;SDS_P2;PMS_P1;PMS_P2;Temp;Humidity;BMP_temperature;BMP_pressure;BME280_temperature;BME280_humidity;BME280_pressure;Samples;Min_cycle;Max_cycle;Signal;HPM_P1;HPM_P2
2023/03/25 00:00:56;;;;;;;18.27;3.05;;;10.80;99.90;;;;;;5032492;28;20499;-73
2023/03/25 00:03:27;;;;;;;17.02;2.83;;;10.80;99.90;;;;;;5015780;28;20041;-73
2023/03/25 00:05:53;;;;;;;19.35;3.42;;;10.80;99.90;;;;;;5032514;28;20037;-73
2023/03/25 00:08:19;;;;;;;16.55;3.00;;;10.90;99.90;;;;;;5032163;28;20044;-74
2023/03/25 00:10:45;;;;;;;24.08;4.22;;;10.70;99.90;;;;;;5032419;28;20041;-73
2023/03/25 00:13:12;;;;;;;20.45;4.13;;;10.80;99.90;;;;;;5031351;28;20038;-71
2023/03/25 00:15:47;;;;;;;20.00;4.50;;;10.80;99.90;;;;;;5015405;28;20073;-73
2023/03/25 00:18:16;;;;;;;22.00;4.97;;;;;;;;;;5032022;28;20045;-73
2023/03/25 00:20:44;;;;;;;25.48;3.70;;;;;;;;;;5031986;28;20099;-74
2023/03/25 00:23:11;;;;;;;24.70;3.97;;;;;;;;;;5031955;28;20090;-71
2023/03/25 00:25:37;;;;;;;17.52;3.40;;;10.80;99.90;;;;;;5031684;28;20047;-73
2023/03/25 00:28:03;;;;;;;24.67;4.32;;;10.70;99.90;;;;;;5015200;28;20041;-73
2023/03/25 00:30:29;;;;;;;27.20;5.53;;;;;;;;;;5032156;28;20037;-73
2023/03/25 00:32:56;;;;;;;29.55;4.72;;;10.60;99.90;;;;;;5031552;28;20077;-74
2023/03/25 00:35:22;;;;;;;25.70;4.30;;;10.80;99.90;;;;;;5031715;28;20532;-73
2023/03/25 00:37:58;;;;;;;23.50;3.97;;;11.40;99.90;;;;;;5031920;28;20091;-73
2023/03/25 00:40:33;;;;;;;18.27;4.28;;;10.60;99.90;;;;;;5031999;28;20621;-73
2023/03/25 00:43:00;;;;;;;19.45;3.65;;;10.60;99.90;;;;;;5031433;28;20163;-74
2023/03/25 00:45:26;;;;;;;30.67;5.18;;;10.60;99.90;;;;;;5031464;28;20041;-73
2023/03/25 00:47:52;;;;;;;31.30;4.65;;;;;;;;;;5031709;28;20520;-73
2023/03/25 00:50:18;;;;;;;24.73;4.75;;;10.30;99.90;;;;;;5031553;28;20041;-72
2023/03/25 00:52:44;;;;;;;31.25;4.47;;;;;;;;;;5031380;28;20037;-73
2023/03/25 00:55:09;;;;;;;24.30;4.25;;;10.40;99.90;;;;;;5014655;28;20049;-73
2023/03/25 00:57:36;;;;;;;33.67;4.68;;;;;;;;;;5014979;28;20417;-73
2023/03/25 01:00:06;;;;;;;27.88;5.57;;;10.40;99.90;;;;;;5031605;28;20441;-73
2023/03/25 01:02:32;;;;;;;23.70;4.30;;;10.30;99.90;;;;;;5031561;28;20524;-73
2023/03/25 01:04:58;;;;;;;24.08;4.30;;;10.40;99.90;;;;;;5031211;28;20448;-74
2023/03/25 01:07:25;;;;;;;24.83;4.88;;;10.40;99.90;;;;;;5031292;28;20041;-73
2023/03/25 01:09:51;;;;;;;22.85;4.38;;;;;;;;;;5031001;28;20063;-73
2023/03/25 01:12:17;;;;;;;29.58;4.82;;;10.40;99.90;;;;;;5031138;28;20130;-73
2023/03/25 01:14:43;;;;;;;28.50;5.07;;;10.40;99.90;;;;;;5030775;28;20487;-73
2023/03/25 01:17:09;;;;;;;29.17;5.68;;;10.30;99.90;;;;;;5031325;28;20068;-73
2023/03/25 01:19:36;;;;;;;21.02;5.32;;;;;;;;;;5030773;28;20559;-73
2023/03/25 01:22:01;;;;;;;20.42;4.38;;;10.30;99.90;;;;;;5031007;28;20146;-73
2023/03/25 01:24:27;;;;;;;21.80;3.97;;;10.30;99.90;;;;;;5032310;28;20564;-73
2023/03/25 01:26:53;;;;;;;24.98;3.70;;;;;;;;;;5014576;28;20390;-73
2023/03/25 01:29:20;;;;;;;33.10;4.50;;;10.30;99.90;;;;;;5031117;28;20128;-73
2023/03/25 01:31:46;;;;;;;32.35;6.57;;;10.40;99.90;;;;;;5030872;28;20046;-73
2023/03/25 01:34:13;;;;;;;31.55;5.60;;;10.30;99.90;;;;;;5030607;28;20041;-73
2023/03/25 01:36:40;;;;;;;24.92;6.00;;;11.10;99.90;;;;;;5031010;28;20038;-74
2023/03/25 01:39:07;;;;;;;24.10;4.63;;;10.40;99.90;;;;;;5030795;28;20080;-74
2023/03/25 01:41:35;;;;;;;32.58;5.00;;;10.30;99.90;;;;;;5030346;28;20033;-73
2023/03/25 01:44:05;;;;;;;28.42;4.03;;;10.30;99.90;;;;;;5030654;28;20050;-73
2023/03/25 01:46:31;;;;;;;33.40;4.70;;;10.20;99.90;;;;;;5031443;28;20103;-73
2023/03/25 01:48:58;;;;;;;21.63;5.20;;;;;;;;;;5030634;28;20520;-72
2023/03/25 01:51:27;;;;;;;19.58;4.15;;;10.30;99.90;;;;;;5030436;28;20120;-74
2023/03/25 01:53:53;;;;;;;24.60;4.72;;;10.30;99.90;;;;;;5030263;28;20103;-73
2023/03/25 01:56:22;;;;;;;32.83;5.30;;;10.40;99.90;;;;;;5030254;28;20488;-73
2023/03/25 01:58:50;;;;;;;24.80;4.75;;;10.20;99.90;;;;;;5030285;28;20061;-73
2023/03/25 02:01:20;;;;;;;39.53;7.30;;;10.40;99.90;;;;;;5030045;28;20497;-73
2023/03/25 02:03:50;;;;;;;27.55;4.65;;;10.40;99.90;;;;;;5030137;28;20046;-73
2023/03/25 02:06:30;;;;;;;27.30;4.68;;;10.40;99.90;;;;;;5030252;28;20048;-73
2023/03/25 02:08:58;;;;;;;28.45;4.47;;;10.20;99.90;;;;;;5013943;28;20136;-73
2023/03/25 02:11:28;;;;;;;27.73;6.20;;;10.40;99.90;;;;;;5013953;28;20042;-73
2023/03/25 02:13:57;;;;;;;44.17;6.18;;;10.30;99.90;;;;;;5029851;28;20071;-73
2023/03/25 02:16:47;;;;;;;31.98;5.13;;;10.40;99.90;;;;;;5030505;28;20390;-75
2023/03/25 02:19:39;;;;;;;30.40;5.18;;;10.40;99.90;;;;;;5030250;28;20099;-73
2023/03/25 02:22:20;;;;;;;35.17;7.00;;;10.30;99.90;;;;;;5030233;28;20050;-73
2023/03/25 02:24:52;;;;;;;31.10;4.80;;;10.30;99.90;;;;;;5029907;28;20527;-73
2023/03/25 02:27:32;;;;;;;23.60;4.53;;;10.30;99.90;;;;;;5030011;28;20049;-73
2023/03/25 02:30:29;;;;;;;31.05;5.03;;;10.30;99.90;;;;;;5030456;28;20033;-73
2023/03/25 02:33:32;;;;;;;27.65;5.82;;;10.40;99.90;;;;;;5029907;28;20128;-73
2023/03/25 02:36:15;;;;;;;22.90;4.78;;;10.10;99.90;;;;;;5029777;28;20038;-73
2023/03/25 02:39:00;;;;;;;38.95;7.07;;;10.40;99.90;;;;;;5029859;28;20033;-74
2023/03/25 02:41:47;;;;;;;23.65;4.80;;;10.30;99.90;;;;;;5029872;28;20038;-73
2023/03/25 02:44:40;;;;;;;33.38;5.38;;;10.30;99.90;;;;;;5013128;28;20132;-72
2023/03/25 02:47:12;;;;;;;26.48;4.47;;;10.30;99.90;;;;;;5029840;28;20041;-73
2023/03/25 02:49:43;;;;;;;28.45;5.03;;;10.20;99.90;;;;;;5030226;28;20148;-73
2023/03/25 02:52:28;;;;;;;27.70;4.88;;;10.10;99.90;;;;;;5030243;28;20037;-73
2023/03/25 02:55:00;;;;;;;21.98;4.82;;;10.10;99.90;;;;;;5033364;28;20588;-73
2023/03/25 02:57:27;;;;;;;22.52;5.07;;;10.30;99.90;;;;;;5017268;28;20049;-73
2023/03/25 02:59:55;;;;;;;31.58;4.95;;;10.10;99.90;;;;;;5033759;28;20404;-72
2023/03/25 03:02:24;;;;;;;23.33;4.60;;;11.00;99.90;;;;;;5033650;28;20034;-73
2023/03/25 03:04:54;;;;;;;23.40;4.45;;;10.10;99.90;;;;;;5033383;28;20046;-74
2023/03/25 03:07:27;;;;;;;30.48;6.32;;;10.20;99.90;;;;;;5016808;28;20034;-73
2023/03/25 03:10:03;;;;;;;20.42;4.60;;;10.20;99.90;;;;;;5033443;28;20049;-73
2023/03/25 03:12:58;;;;;;;43.97;5.43;;;10.10;99.90;;;;;;5033657;28;20065;-73
2023/03/25 03:15:51;;;;;;;23.05;4.40;;;10.30;99.90;;;;;;5032090;28;20050;-73
2023/03/25 03:18:47;;;;;;;33.35;4.45;;;10.30;99.90;;;;;;5016916;28;20067;-73
2023/03/25 03:21:28;;;;;;;24.15;4.57;;;10.30;99.90;;;;;;5015978;28;20053;-72
2023/03/25 03:24:16;;;;;;;25.75;4.70;;;10.20;99.90;;;;;;5033117;28;20057;-72
2023/03/25 03:26:57;;;;;;;27.70;5.70;;;10.10;99.90;;;;;;5033159;28;20037;-72
2023/03/25 03:29:27;;;;;;;29.08;5.30;;;10.40;99.90;;;;;;5033445;28;20447;-73
2023/03/25 03:32:07;;;;;;;27.92;5.20;;;11.10;99.90;;;;;;5033274;28;20141;-72
2023/03/25 03:34:43;;;;;;;30.92;5.30;;;10.40;99.90;;;;;;5032588;28;20041;-74
2023/03/25 03:37:14;;;;;;;29.05;5.63;;;10.20;99.90;;;;;;5033012;28;20047;-73
2023/03/25 03:39:42;;;;;;;27.15;5.25;;;10.10;99.90;;;;;;5032942;28;20036;-72
2023/03/25 03:42:20;;;;;;;24.40;4.35;;;10.20;99.90;;;;;;5016274;28;20448;-73
2023/03/25 03:44:51;;;;;;;33.28;5.30;;;10.20;99.90;;;;;;5015975;28;20049;-74
2023/03/25 03:47:25;;;;;;;29.30;5.70;;;10.20;99.90;;;;;;5033097;28;20045;-72
2023/03/25 03:49:57;;;;;;;23.88;4.90;;;10.30;99.90;;;;;;5032741;28;20047;-72
2023/03/25 03:52:28;;;;;;;25.77;5.10;;;10.20;99.90;;;;;;5032669;28;20041;-73
2023/03/25 03:54:59;;;;;;;30.38;6.50;;;10.30;99.90;;;;;;5032082;28;20077;-73
2023/03/25 03:57:36;;;;;;;22.75;5.25;;;10.10;99.90;;;;;;5032802;28;20048;-73
2023/03/25 04:00:11;;;;;;;30.80;5.32;;;10.30;99.90;;;;;;5016063;28;20029;-73
2023/03/25 04:02:46;;;;;;;31.67;4.97;;;10.30;99.90;;;;;;5032372;28;20033;-73
2023/03/25 04:05:15;;;;;;;24.52;4.80;;;10.20;99.90;;;;;;5031831;28;20515;-73
2023/03/25 04:07:53;;;;;;;29.40;4.97;;;10.20;99.90;;;;;;5031572;28;20037;-72
2023/03/25 04:10:33;;;;;;;30.63;4.80;;;10.30;99.90;;;;;;5032216;28;20037;-73
2023/03/25 04:13:02;;;;;;;28.23;5.30;;;10.10;99.90;;;;;;5032380;28;20474;-71
2023/03/25 04:15:28;;;;;;;22.20;4.82;;;10.20;99.90;;;;;;5031747;28;20091;-72
2023/03/25 04:17:54;;;;;;;35.17;5.75;;;10.40;99.90;;;;;;5032065;28;20041;-73
2023/03/25 04:20:24;;;;;;;26.63;4.93;;;10.30;99.90;;;;;;5015594;28;20409;-73
2023/03/25 04:22:51;;;;;;;29.65;6.07;;;10.60;99.90;;;;;;5015434;28;20045;-73
2023/03/25 04:25:20;;;;;;;25.67;5.57;;;10.20;99.90;;;;;;5015078;28;20056;-73
2023/03/25 04:27:47;;;;;;;25.40;4.32;;;10.30;99.90;;;;;;5015306;28;20102;-72
2023/03/25 04:30:16;;;;;;;26.77;4.93;;;10.20;99.90;;;;;;5031726;28;20052;-72
2023/03/25 04:32:45;;;;;;;19.92;4.45;;;10.30;99.90;;;;;;5031818;28;20452;-73
2023/03/25 04:35:13;;;;;;;23.40;5.35;;;10.20;99.90;;;;;;5031329;28;20041;-73
2023/03/25 04:37:40;;;;;;;31.80;6.30;;;10.20;99.90;;;;;;5015215;28;20042;-73
2023/03/25 04:40:07;;;;;;;34.40;6.80;;;10.40;99.90;;;;;;5031689;28;20056;-73
2023/03/25 04:42:36;;;;;;;33.70;5.22;;;10.10;99.90;;;;;;5015007;28;20042;-74
2023/03/25 04:45:03;;;;;;;26.67;4.65;;;10.30;99.90;;;;;;5031247;28;20528;-73
2023/03/25 04:47:29;;;;;;;23.05;4.60;;;;;;;;;;5014958;28;20038;-73
2023/03/25 04:49:55;;;;;;;34.83;6.05;;;10.30;99.90;;;;;;5031570;28;20136;-73
2023/03/25 04:52:21;;;;;;;26.95;5.47;;;10.70;99.90;;;;;;5031598;28;20051;-74
2023/03/25 04:54:46;;;;;;;21.30;4.47;;;10.10;99.90;;;;;;5031189;28;20041;-73
2023/03/25 04:57:12;;;;;;;21.50;4.60;;;10.30;99.90;;;;;;5015182;28;20563;-73
2023/03/25 04:59:37;;;;;;;25.33;4.00;;;10.30;99.90;;;;;;5031382;28;20129;-72
2023/03/25 05:02:05;;;;;;;31.00;5.05;;;10.40;99.90;;;;;;5014546;28;20045;-73
2023/03/25 05:04:32;;;;;;;38.80;8.15;;;10.10;99.90;;;;;;5014551;28;20045;-72
2023/03/25 05:06:58;;;;;;;27.25;5.00;;;;;;;;;;5031173;28;20049;-73
2023/03/25 05:09:24;;;;;;;37.55;5.57;;;;;;;;;;5031406;28;20067;-74
2023/03/25 05:11:51;;;;;;;27.23;4.90;;;10.20;99.90;;;;;;5014849;28;20492;-73
2023/03/25 05:14:19;;;;;;;30.02;8.23;;;10.10;99.90;;;;;;5030835;28;20111;-73
2023/03/25 05:16:46;;;;;;;21.55;5.00;;;10.20;99.90;;;;;;5030625;28;20045;-73
2023/03/25 05:19:13;;;;;;;26.23;5.90;;;10.10;99.90;;;;;;5031298;28;20489;-73
2023/03/25 05:21:42;;;;;;;28.30;6.38;;;11.20;99.90;;;;;;5031134;28;20405;-73
2023/03/25 05:24:10;;;;;;;27.30;6.03;;;10.00;99.90;;;;;;5030616;28;20064;-73
2023/03/25 05:26:38;;;;;;;32.67;5.13;;;10.10;99.90;;;;;;5030802;28;20060;-72
2023/03/25 05:29:15;;;;;;;26.73;5.35;;;10.10;99.90;;;;;;5030635;28;20072;-73
2023/03/25 05:31:43;;;;;;;30.85;5.63;;;10.10;99.90;;;;;;5030697;28;20416;-72
2023/03/25 05:34:09;;;;;;;31.70;5.93;;;;;;;;;;5030397;28;20440;-74
2023/03/25 05:36:35;;;;;;;27.92;6.65;;;10.00;99.90;;;;;;5030606;28;20052;-73
2023/03/25 05:39:01;;;;;;;28.17;5.72;;;10.20;99.90;;;;;;5030829;28;20041;-73
2023/03/25 05:41:37;;;;;;;28.25;5.03;;;10.00;99.90;;;;;;5030571;28;20041;-73
2023/03/25 05:44:08;;;;;;;31.60;7.03;;;10.00;99.90;;;;;;5031213;28;20049;-72
2023/03/25 05:46:34;;;;;;;23.13;4.60;;;10.40;99.90;;;;;;5030575;28;20590;-73
2023/03/25 05:49:00;;;;;;;29.33;4.82;;;10.10;99.90;;;;;;5014267;28;20041;-73
2023/03/25 05:51:27;;;;;;;32.13;5.18;;;10.20;99.90;;;;;;5030353;28;20064;-73
2023/03/25 05:53:53;;;;;;;27.77;5.63;;;10.10;99.90;;;;;;5030193;28;20042;-73
2023/03/25 05:56:21;;;;;;;30.95;5.40;;;9.90;99.90;;;;;;5012215;28;20051;-72
2023/03/25 05:58:49;;;;;;;29.40;5.18;;;9.90;99.90;;;;;;5029479;28;20160;-72
2023/03/25 06:01:17;;;;;;;29.98;5.43;;;10.00;99.90;;;;;;5028560;28;20041;-74
2023/03/25 06:03:43;;;;;;;33.65;6.57;;;10.00;99.90;;;;;;5029711;28;20515;-73
2023/03/25 06:06:12;;;;;;;27.67;5.68;;;;;;;;;;5030479;28;20394;-73
2023/03/25 06:08:42;;;;;;;32.33;5.10;;;10.20;99.90;;;;;;5030372;28;20109;-72
2023/03/25 06:11:09;;;;;;;30.88;6.90;;;10.00;99.90;;;;;;5030266;28;20116;-73
2023/03/25 06:13:38;;;;;;;27.15;4.65;;;10.00;99.90;;;;;;5013483;28;20033;-73
2023/03/25 06:16:08;;;;;;;40.10;5.75;;;10.00;99.90;;;;;;5013960;28;20041;-73
2023/03/25 06:18:35;;;;;;;24.85;4.43;;;10.30;99.90;;;;;;5030024;28;20044;-73
2023/03/25 06:21:02;;;;;;;27.33;6.95;;;;;;;;;;5030132;28;20505;-73
2023/03/25 06:23:27;;;;;;;20.77;4.63;;;9.90;99.90;;;;;;5013654;28;20045;-75
2023/03/25 06:25:53;;;;;;;26.45;4.90;;;10.00;99.90;;;;;;5030210;28;20037;-73
2023/03/25 06:28:19;;;;;;;26.88;6.38;;;9.90;99.90;;;;;;5017560;28;20156;-73
2023/03/25 06:30:46;;;;;;;25.05;4.57;;;10.00;99.90;;;;;;5034222;28;20113;-73
2023/03/25 06:33:13;;;;;;;24.63;4.65;;;10.00;99.90;;;;;;5017078;28;20050;-70
2023/03/25 06:35:41;;;;;;;25.85;4.47;;;10.00;99.90;;;;;;5033817;28;20046;-72
2023/03/25 06:38:10;;;;;;;32.60;6.03;;;10.20;99.90;;;;;;5034030;28;20037;-73
2023/03/25 06:40:36;;;;;;;23.30;4.32;;;10.10;99.90;;;;;;5017421;28;20041;-71
2023/03/25 06:43:06;;;;;;;23.42;4.68;;;10.20;99.90;;;;;;5017345;28;20432;-74
2023/03/25 06:45:32;;;;;;;27.98;5.10;;;10.10;99.90;;;;;;5033478;28;20057;-73
2023/03/25 06:47:59;;;;;;;27.33;4.07;;;10.50;99.90;;;;;;5028497;28;20063;-71
2023/03/25 06:50:25;;;;;;;18.40;3.90;;;10.60;99.90;;;;;;5021871;28;20049;-74
2023/03/25 06:52:51;;;;;;;31.42;6.07;;;10.00;99.90;;;;;;5017640;28;20041;-74
2023/03/25 06:55:17;;;;;;;23.88;5.57;;;9.90;99.90;;;;;;5017460;28;20057;-75
2023/03/25 06:57:43;;;;;;;29.05;5.50;;;10.00;99.90;;;;;;5025871;28;20540;-73
2023/03/25 07:00:13;;;;;;;21.27;3.72;;;10.00;99.90;;;;;;5013348;28;20081;-73
2023/03/25 07:02:39;;;;;;;21.23;4.18;;;9.70;99.90;;;;;;5019297;28;20072;-72
2023/03/25 07:05:05;;;;;;;18.30;4.57;;;10.10;99.90;;;;;;5024102;28;20096;-73
2023/03/25 07:07:31;;;;;;;35.63;5.90;;;10.00;99.90;;;;;;5011485;28;20045;-73
2023/03/25 07:09:57;;;;;;;22.48;3.63;;;10.00;99.90;;;;;;5017474;28;20096;-73
2023/03/25 07:12:23;;;;;;;26.60;5.13;;;10.10;99.90;;;;;;5015749;28;20700;-73
2023/03/25 07:14:53;;;;;;;25.45;4.10;;;10.10;99.90;;;;;;5016265;28;20456;-71
2023/03/25 07:17:19;;;;;;;23.05;4.38;;;;;;;;;;5013926;28;20068;-69
2023/03/25 07:19:46;;;;;;;19.50;4.55;;;;;;;;;;5026114;28;20081;-73
2023/03/25 07:22:12;;;;;;;18.98;3.15;;;10.00;99.90;;;;;;5002026;28;20080;-73
2023/03/25 07:24:37;;;;;;;18.05;3.97;;;10.00;99.90;;;;;;5016296;28;21331;-73
2023/03/25 07:27:03;;;;;;;19.45;3.53;;;9.90;99.90;;;;;;5000255;28;20045;-72
2023/03/25 07:29:29;;;;;;;21.92;3.88;;;9.80;99.90;;;;;;5013956;28;20083;-71
2023/03/25 07:31:55;;;;;;;24.10;3.97;;;9.90;99.90;;;;;;5015569;28;20677;-74
2023/03/25 07:34:20;;;;;;;20.42;3.60;;;9.70;99.90;;;;;;5012180;28;20029;-69
2023/03/25 07:36:46;;;;;;;17.17;3.78;;;;;;;;;;4998231;28;20161;-73
2023/03/25 07:39:12;;;;;;;27.88;3.95;;;;;;;;;;5000794;28;20041;-73
2023/03/25 07:41:38;;;;;;;20.80;3.65;;;9.40;99.90;;;;;;4997939;28;20099;-73
2023/03/25 07:44:04;;;;;;;19.55;3.72;;;9.60;99.90;;;;;;5016044;28;20045;-72
2023/03/25 07:46:30;;;;;;;18.33;3.72;;;9.70;99.90;;;;;;5013645;28;20056;-74
2023/03/25 07:48:55;;;;;;;18.55;3.13;;;9.60;99.90;;;;;;4998874;28;20064;-75
2023/03/25 07:51:21;;;;;;;17.17;3.58;;;9.60;99.90;;;;;;5025462;28;20072;-73
2023/03/25 07:53:47;;;;;;;18.65;4.13;;;;;;;;;;5033715;28;20077;-73
2023/03/25 07:56:14;;;;;;;31.20;5.43;;;9.80;99.90;;;;;;5036837;28;20042;-72
2023/03/25 07:58:40;;;;;;;26.52;3.22;;;9.40;99.90;;;;;;5012359;28;20033;-73
2023/03/25 08:01:07;;;;;;;15.75;3.40;;;9.50;99.90;;;;;;5009741;28;20400;-73
2023/03/25 08:03:33;;;;;;;21.95;3.83;;;9.70;99.90;;;;;;5021082;28;20037;-73
2023/03/25 08:06:00;;;;;;;14.95;3.17;;;9.70;99.90;;;;;;5025222;28;20053;-73
2023/03/25 08:08:30;;;;;;;20.77;4.53;;;9.80;99.90;;;;;;5019383;28;20049;-73
2023/03/25 08:10:56;;;;;;;25.45;3.85;;;10.10;99.90;;;;;;5021896;28;20034;-73
2023/03/25 08:13:22;;;;;;;29.60;4.20;;;9.90;99.90;;;;;;4999622;28;20065;-73
2023/03/25 08:15:48;;;;;;;25.23;4.13;;;10.00;99.90;;;;;;5021743;28;20108;-73
2023/03/25 08:18:14;;;;;;;25.17;4.88;;;9.60;99.90;;;;;;5018092;28;20116;-74
2023/03/25 08:20:40;;;;;;;32.17;5.00;;;9.90;99.90;;;;;;5029259;28;20417;-74
2023/03/25 08:23:11;;;;;;;21.45;3.75;;;;;;;;;;5021493;28;20065;-73
2023/03/25 08:25:38;;;;;;;19.38;3.97;;;9.80;99.90;;;;;;5010187;28;20078;-73
2023/03/25 08:28:05;;;;;;;23.50;4.35;;;10.00;99.90;;;;;;5007793;28;20049;-73
2023/03/25 08:30:37;;;;;;;19.73;3.95;;;10.20;99.90;;;;;;5009777;28;20045;-73
2023/03/25 08:33:06;;;;;;;39.92;5.57;;;;;;;;;;5020121;28;20381;-73
2023/03/25 08:35:33;;;;;;;23.48;4.03;;;10.00;99.90;;;;;;5026783;28;20053;-73
2023/03/25 08:38:00;;;;;;;21.17;4.03;;;10.10;99.90;;;;;;5028430;28;20041;-73
2023/03/25 08:40:26;;;;;;;23.70;3.42;;;;;;;;;;5028238;28;20124;-72
2023/03/25 08:42:53;;;;;;;27.50;4.53;;;10.00;99.90;;;;;;5014583;28;20683;-74
2023/03/25 08:45:19;;;;;;;21.17;3.75;;;10.20;99.90;;;;;;5019768;28;20038;-73
2023/03/25 08:47:45;;;;;;;17.55;4.68;;;10.30;99.90;;;;;;5024799;28;20072;-73
2023/03/25 08:50:11;;;;;;;19.13;3.80;;;10.40;99.90;;;;;;5023763;28;20037;-73
2023/03/25 08:52:37;;;;;;;21.88;4.22;;;10.60;99.90;;;;;;5027362;28;20037;-72
2023/03/25 08:55:06;;;;;;;23.63;3.97;;;10.50;99.90;;;;;;5021403;28;20040;-74
2023/03/25 08:57:35;;;;;;;15.65;3.60;;;10.60;99.90;;;;;;5019197;28;20087;-72
2023/03/25 09:00:01;;;;;;;18.25;3.00;;;10.80;99.90;;;;;;5011262;28;20041;-73
2023/03/25 09:02:27;;;;;;;15.68;3.38;;;;;;;;;;5015483;28;20061;-73
2023/03/25 09:04:53;;;;;;;13.45;3.85;;;11.20;99.90;;;;;;5005717;28;20501;-75
2023/03/25 09:07:19;;;;;;;24.92;4.03;;;11.10;99.90;;;;;;5023972;28;20091;-74
2023/03/25 09:09:45;;;;;;;19.30;3.75;;;11.00;99.90;;;;;;5027590;28;20039;-74
2023/03/25 09:12:11;;;;;;;18.77;3.55;;;11.20;99.90;;;;;;5020562;28;20037;-74
2023/03/25 09:14:37;;;;;;;16.23;2.78;;;11.10;99.90;;;;;;5030122;28;20041;-73
2023/03/25 09:17:04;;;;;;;19.35;4.07;;;11.00;99.90;;;;;;5015496;28;20397;-73
2023/03/25 09:19:31;;;;;;;20.05;3.53;;;;;;;;;;5019897;28;20412;-74
2023/03/25 09:21:57;;;;;;;18.50;3.22;;;;;;;;;;5020480;28;20065;-74
2023/03/25 09:24:23;;;;;;;20.10;4.10;;;11.20;99.90;;;;;;5022520;28;20520;-74
2023/03/25 09:26:49;;;;;;;18.42;4.20;;;11.30;99.90;;;;;;5020947;28;20165;-74
2023/03/25 09:29:15;;;;;;;17.15;3.35;;;11.20;99.90;;;;;;5015283;28;20129;-69
2023/03/25 09:31:40;;;;;;;15.90;2.80;;;11.20;99.90;;;;;;5011926;28;20034;-74
2023/03/25 09:34:06;;;;;;;20.95;4.65;;;10.90;99.90;;;;;;5010617;28;20413;-73
2023/03/25 09:36:32;;;;;;;18.10;3.30;;;10.90;99.90;;;;;;4994730;28;20405;-74
2023/03/25 09:38:57;;;;;;;11.10;3.22;;;10.80;99.90;;;;;;5010770;28;20052;-73
2023/03/25 09:41:49;;;;;;;20.45;3.45;;;10.90;99.90;;;;;;5012566;28;20045;-74
2023/03/25 09:44:26;;;;;;;15.48;3.67;;;11.00;99.90;;;;;;5000613;28;20053;-74
2023/03/25 09:46:53;;;;;;;22.30;3.80;;;10.90;99.90;;;;;;5010805;28;20041;-73
2023/03/25 09:49:24;;;;;;;20.00;3.78;;;11.00;99.90;;;;;;5010780;28;20104;-74
2023/03/25 09:51:52;;;;;;;18.52;3.97;;;11.60;99.90;;;;;;5010723;28;20044;-73
2023/03/25 09:54:27;;;;;;;21.77;4.10;;;11.10;99.90;;;;;;5010541;28;20084;-74
2023/03/25 09:57:00;;;;;;;18.27;3.65;;;10.90;99.90;;;;;;5011098;28;20596;-73
2023/03/25 09:59:47;;;;;;;19.90;3.25;;;11.80;99.90;;;;;;5010762;28;20033;-73
2023/03/25 10:02:41;;;;;;;29.63;5.75;;;11.00;99.90;;;;;;5010249;28;20044;-73
2023/03/25 10:05:21;;;;;;;17.20;3.22;;;11.00;99.90;;;;;;5010823;28;20042;-73
2023/03/25 10:08:05;;;;;;;23.92;4.32;;;11.00;99.90;;;;;;5011612;28;20038;-74
2023/03/25 10:10:30;;;;;;;;;;;11.20;99.90;;;;;;5012416;28;20045;-74
2023/03/25 10:13:34;;;;;;;25.33;3.88;;;11.20;99.90;;;;;;5010373;28;19924;-73
2023/03/25 10:16:10;;;;;;;20.67;2.97;;;11.20;99.90;;;;;;5010461;28;20050;-73
2023/03/25 10:18:46;;;;;;;12.35;3.22;;;11.20;99.90;;;;;;5011526;28;20099;-74
2023/03/25 10:21:22;;;;;;;18.00;3.60;;;11.20;99.90;;;;;;4994266;28;20042;-73
2023/03/25 10:23:57;;;;;;;20.10;3.65;;;11.40;99.90;;;;;;5010383;28;20113;-74
2023/03/25 10:27:01;;;;;;;21.95;4.20;;;11.40;99.90;;;;;;4994106;28;20042;-73
2023/03/25 10:29:30;;;;;;;18.00;3.47;;;11.40;99.90;;;;;;4995248;28;20136;-74
2023/03/25 10:32:00;;;;;;;17.50;4.50;;;11.30;99.90;;;;;;4994120;28;20046;-73
2023/03/25 10:34:39;;;;;;;25.55;4.05;;;11.50;99.90;;;;;;5010144;28;20057;-74
2023/03/25 10:37:11;;;;;;;23.10;4.82;;;11.50;99.90;;;;;;5010674;28;20038;-73
2023/03/25 10:39:44;;;;;;;17.25;3.40;;;12.60;99.90;;;;;;5010893;28;20026;-73
2023/03/25 10:42:25;;;;;;;24.00;4.72;;;12.00;99.90;;;;;;5010004;28;20038;-73
2023/03/25 10:44:52;;;;;;;25.90;3.45;;;11.50;99.90;;;;;;5010198;28;20402;-73
2023/03/25 10:47:27;;;;;;;19.20;3.42;;;11.60;99.90;;;;;;5010247;28;20100;-73
2023/03/25 10:49:54;;;;;;;23.45;3.90;;;12.50;99.90;;;;;;5010373;28;20050;-73
2023/03/25 10:52:20;;;;;;;16.45;3.15;;;11.80;99.90;;;;;;5010255;28;20153;-73
2023/03/25 10:54:52;;;;;;;17.55;3.30;;;12.00;99.90;;;;;;5010083;28;20576;-73
2023/03/25 10:57:29;;;;;;;18.83;4.57;;;12.10;99.90;;;;;;5010416;28;20073;-73
2023/03/25 11:00:19;;;;;;;16.42;3.47;;;12.30;99.90;;;;;;5010025;28;20050;-73
2023/03/25 11:02:48;;;;;;;16.10;3.08;;;12.30;99.90;;;;;;5010174;28;20034;-73
2023/03/25 11:05:23;;;;;;;20.27;3.63;;;12.60;99.90;;;;;;5009935;28;20048;-73
2023/03/25 11:07:52;;;;;;;16.98;2.83;;;12.70;99.90;;;;;;5010154;28;20042;-73
2023/03/25 11:10:23;;;;;;;16.38;3.35;;;12.30;99.90;;;;;;5010362;28;20100;-73
2023/03/25 11:12:50;;;;;;;14.88;2.70;;;12.20;99.90;;;;;;5009993;28;20552;-73
2023/03/25 11:15:22;;;;;;;20.67;4.25;;;12.40;99.90;;;;;;5013232;28;20112;-72
2023/03/25 11:18:10;;;;;;;13.27;2.97;;;13.10;99.90;;;;;;4997166;28;20038;-73
2023/03/25 11:20:48;;;;;;;16.27;2.55;;;12.00;99.90;;;;;;5013468;28;20112;-74
2023/03/25 11:23:24;;;;;;;18.40;3.22;;;12.10;99.90;;;;;;4996797;28;20045;-71
2023/03/25 11:25:51;;;;;;;19.65;2.97;;;12.00;99.90;;;;;;5013504;28;20042;-73
2023/03/25 11:28:21;;;;;;;18.55;3.30;;;12.10;99.90;;;;;;5013603;28;20042;-73
2023/03/25 11:31:06;;;;;;;11.38;3.08;;;11.90;99.90;;;;;;5013596;28;20041;-73
2023/03/25 11:33:32;;;;;;;17.10;3.75;;;12.10;99.90;;;;;;4996792;28;20052;-73
2023/03/25 11:36:10;;;;;;;19.63;3.17;;;12.10;99.90;;;;;;4996888;28;20129;-73
2023/03/25 11:38:37;;;;;;;10.95;3.00;;;12.60;99.90;;;;;;5013798;28;20046;-73
2023/03/25 11:41:04;;;;;;;17.35;2.92;;;12.40;99.90;;;;;;5013592;28;20038;-73
2023/03/25 11:43:35;;;;;;;21.35;3.17;;;12.70;99.90;;;;;;5012902;28;20030;-73
2023/03/25 11:46:13;;;;;;;19.33;2.75;;;12.70;99.90;;;;;;5013049;28;20125;-74
2023/03/25 11:48:41;;;;;;;20.52;3.83;;;12.60;99.90;;;;;;4996751;28;20524;-73
2023/03/25 11:51:21;;;;;;;14.82;2.83;;;13.50;99.90;;;;;;5012863;28;20053;-73
2023/03/25 11:53:57;;;;;;;16.10;4.13;;;13.10;99.90;;;;;;5012705;28;20048;-73
2023/03/25 11:56:30;;;;;;;16.58;2.72;;;12.70;99.90;;;;;;5013093;28;20038;-73
2023/03/25 11:58:59;;;;;;;14.03;2.90;;;12.80;99.90;;;;;;4997945;28;20042;-73
2023/03/25 12:01:41;;;;;;;18.58;4.00;;;12.50;99.90;;;;;;5012755;28;20588;-73
2023/03/25 12:04:23;;;;;;;17.20;2.78;;;12.70;99.90;;;;;;5012562;28;20034;-73
2023/03/25 12:06:56;;;;;;;7.95;2.50;;;12.70;99.90;;;;;;5012994;28;20400;-73
2023/03/25 12:09:24;;;;;;;13.60;3.65;;;12.50;99.90;;;;;;4996392;28;20038;-73
2023/03/25 12:12:08;;;;;;;11.77;2.65;;;12.60;99.90;;;;;;4996290;28;20088;-73
2023/03/25 12:14:39;;;;;;;15.13;3.53;;;13.00;99.90;;;;;;5012402;28;20112;-73
2023/03/25 12:17:09;;;;;;;20.50;4.05;;;12.80;99.90;;;;;;5012453;28;20091;-73
2023/03/25 12:19:55;;;;;;;13.65;2.50;;;12.80;99.90;;;;;;5012442;28;20044;-73
2023/03/25 12:22:41;;;;;;;16.92;3.35;;;12.60;99.90;;;;;;5012383;28;20042;-73
2023/03/25 12:25:31;;;;;;;16.00;2.53;;;13.70;99.90;;;;;;4995443;28;20084;-73
2023/03/25 12:27:59;;;;;;;15.90;2.85;;;12.80;99.90;;;;;;5012218;28;20042;-73
2023/03/25 12:31:06;;;;;;;14.88;2.70;;;12.70;99.90;;;;;;5012770;28;20077;-74
2023/03/25 12:33:35;;;;;;;17.70;3.10;;;12.50;99.90;;;;;;4984792;28;20086;-73
2023/03/25 12:36:24;;;;;;;16.58;4.07;;;12.80;99.90;;;;;;5012069;28;20049;-73
2023/03/25 12:39:08;;;;;;;12.13;2.53;;;12.80;99.90;;;;;;5012155;28;20135;-73
2023/03/25 12:41:55;;;;;;;17.13;3.60;;;12.70;99.90;;;;;;5011887;28;20593;-73
2023/03/25 12:44:57;;;;;;;13.18;3.08;;;12.40;99.90;;;;;;5011602;28;20045;-73
2023/03/25 12:47:40;;;;;;;18.38;3.42;;;12.40;99.90;;;;;;5011909;28;20049;-73
2023/03/25 12:50:07;;;;;;;19.13;2.72;;;12.60;99.90;;;;;;4995464;28;20049;-74
2023/03/25 12:52:55;;;;;;;16.35;2.85;;;13.20;99.90;;;;;;5011772;28;20041;-73
2023/03/25 12:55:52;;;;;;;10.77;2.20;;;12.30;99.90;;;;;;4995190;28;20510;-73
2023/03/25 12:58:45;;;;;;;15.32;2.90;;;12.10;99.90;;;;;;5011625;28;20042;-73
2023/03/25 13:01:30;;;;;;;13.93;2.75;;;12.10;99.90;;;;;;5011616;28;20077;-73
2023/03/25 13:04:43;;;;;;;11.98;2.45;;;12.10;99.90;;;;;;4995152;28;20043;-74
2023/03/25 13:07:13;;;;;;;13.98;2.83;;;12.10;99.90;;;;;;5007165;28;20448;-74
2023/03/25 13:09:41;;;;;;;10.75;2.22;;;12.20;99.90;;;;;;5011517;28;20049;-73